sensor_id;sensor_type;location;lat;lon;timestamp;P1;durP1;ratioP1;P2;durP2;ratioP2
47335;SDS011;33068;51.990;5.926;2023-02-15T00:01:06;85.60;;;38.20;;
47335;SDS011;33068;51.990;5.926;2023-02-15T00:03:33;79.80;;;37.55;;
47335;SDS011;33068;51.990;5.926;2023-02-15T00:06:02;79.93;;;36.05;;
47335;SDS011;33068;51.990;5.926;2023-02-15T00:08:30;84.47;;;37.97;;
47335;SDS011;33068;51.990;5.926;2023-02-15T00:11:04;93.28;;;38.75;;
47335;SDS011;33068;51.990;5.926;2023-02-15T00:13:32;81.68;;;36.20;;
47335;SDS011;33068;51.990;5.926;2023-02-15T00:16:01;81.68;;;36.50;;
47335;SDS011;33068;51.990;5.926;2023-02-15T00:18:29;85.55;;;38.05;;
47335;SDS011;33068;51.990;5.926;2023-02-15T00:20:56;84.18;;;37.10;;
47335;SDS011;33068;51.990;5.926;2023-02-15T00:23:25;81.85;;;37.83;;
47335;SDS011;33068;51.990;5.926;2023-02-15T00:26:02;80.25;;;37.88;;
47335;SDS011;33068;51.990;5.926;2023-02-15T00:28:30;89.40;;;38.53;;
47335;SDS011;33068;51.990;5.926;2023-02-15T00:31:02;76.60;;;35.72;;
47335;SDS011;33068;51.990;5.926;2023-02-15T00:33:34;87.82;;;35.75;;
47335;SDS011;33068;51.990;5.926;2023-02-15T00:36:02;85.55;;;38.40;;
47335;SDS011;33068;51.990;5.926;2023-02-15T00:38:32;78.22;;;36.28;;
47335;SDS011;33068;51.990;5.926;2023-02-15T00:41:04;74.15;;;35.55;;
47335;SDS011;33068;51.990;5.926;2023-02-15T00:43:32;76.88;;;35.97;;
47335;SDS011;33068;51.990;5.926;2023-02-15T00:46:00;76.97;;;36.58;;
47335;SDS011;33068;51.990;5.926;2023-02-15T00:48:28;75.72;;;36.75;;
47335;SDS011;33068;51.990;5.926;2023-02-15T00:50:56;76.47;;;34.40;;
47335;SDS011;33068;51.990;5.926;2023-02-15T00:53:26;77.03;;;34.85;;
47335;SDS011;33068;51.990;5.926;2023-02-15T00:55:55;73.10;;;34.65;;
47335;SDS011;33068;51.990;5.926;2023-02-15T00:58:22;76.00;;;34.60;;
47335;SDS011;33068;51.990;5.926;2023-02-15T01:00:49;72.22;;;33.58;;
47335;SDS011;33068;51.990;5.926;2023-02-15T01:03:17;74.90;;;34.97;;
47335;SDS011;33068;51.990;5.926;2023-02-15T01:05:46;80.63;;;35.55;;
47335;SDS011;33068;51.990;5.926;2023-02-15T01:08:13;80.00;;;36.95;;
47335;SDS011;33068;51.990;5.926;2023-02-15T01:10:41;74.15;;;34.63;;
47335;SDS011;33068;51.990;5.926;2023-02-15T01:13:12;77.70;;;35.67;;
47335;SDS011;33068;51.990;5.926;2023-02-15T01:15:40;76.13;;;36.47;;
47335;SDS011;33068;51.990;5.926;2023-02-15T01:18:08;83.63;;;36.13;;
47335;SDS011;33068;51.990;5.926;2023-02-15T01:20:36;79.80;;;38.47;;
47335;SDS011;33068;51.990;5.926;2023-02-15T01:23:06;78.32;;;35.10;;
47335;SDS011;33068;51.990;5.926;2023-02-15T01:25:34;89.10;;;36.60;;
47335;SDS011;33068;51.990;5.926;2023-02-15T01:28:02;84.50;;;36.28;;
47335;SDS011;33068;51.990;5.926;2023-02-15T01:30:32;80.18;;;35.80;;
47335;SDS011;33068;51.990;5.926;2023-02-15T01:32:59;81.45;;;33.60;;
47335;SDS011;33068;51.990;5.926;2023-02-15T01:35:29;80.30;;;34.88;;
47335;SDS011;33068;51.990;5.926;2023-02-15T01:37:57;78.38;;;33.40;;
47335;SDS011;33068;51.990;5.926;2023-02-15T01:40:24;83.07;;;36.05;;
47335;SDS011;33068;51.990;5.926;2023-02-15T01:42:52;90.60;;;38.05;;
47335;SDS011;33068;51.990;5.926;2023-02-15T01:45:22;87.88;;;37.78;;
47335;SDS011;33068;51.990;5.926;2023-02-15T01:47:56;88.20;;;38.88;;
47335;SDS011;33068;51.990;5.926;2023-02-15T01:50:29;93.72;;;37.50;;
47335;SDS011;33068;51.990;5.926;2023-02-15T01:53:02;81.53;;;37.70;;
47335;SDS011;33068;51.990;5.926;2023-02-15T01:55:34;85.07;;;36.67;;
47335;SDS011;33068;51.990;5.926;2023-02-15T01:58:04;76.03;;;35.42;;
47335;SDS011;33068;51.990;5.926;2023-02-15T02:00:32;81.00;;;36.22;;
47335;SDS011;33068;51.990;5.926;2023-02-15T02:03:03;77.63;;;35.05;;
47335;SDS011;33068;51.990;5.926;2023-02-15T02:05:30;74.78;;;34.05;;
47335;SDS011;33068;51.990;5.926;2023-02-15T02:07:59;77.50;;;34.28;;
47335;SDS011;33068;51.990;5.926;2023-02-15T02:10:30;75.97;;;35.63;;
47335;SDS011;33068;51.990;5.926;2023-02-15T02:12:57;81.32;;;34.25;;
47335;SDS011;33068;51.990;5.926;2023-02-15T02:15:28;81.25;;;37.08;;
47335;SDS011;33068;51.990;5.926;2023-02-15T02:18:06;77.93;;;37.15;;
47335;SDS011;33068;51.990;5.926;2023-02-15T02:27:17;73.85;;;34.92;;
47335;SDS011;33068;51.990;5.926;2023-02-15T02:33:06;74.88;;;33.80;;
47335;SDS011;33068;51.990;5.926;2023-02-15T02:35:48;79.07;;;33.75;;
47335;SDS011;33068;51.990;5.926;2023-02-15T02:38:26;83.82;;;35.67;;
47335;SDS011;33068;51.990;5.926;2023-02-15T02:41:03;80.45;;;35.28;;
47335;SDS011;33068;51.990;5.926;2023-02-15T02:43:40;80.68;;;34.22;;
47335;SDS011;33068;51.990;5.926;2023-02-15T02:46:15;79.95;;;34.65;;
47335;SDS011;33068;51.990;5.926;2023-02-15T02:48:48;81.10;;;35.15;;
47335;SDS011;33068;51.990;5.926;2023-02-15T02:51:16;80.65;;;36.33;;
47335;SDS011;33068;51.990;5.926;2023-02-15T02:53:47;81.40;;;35.55;;
47335;SDS011;33068;51.990;5.926;2023-02-15T02:56:18;78.97;;;33.78;;
47335;SDS011;33068;51.990;5.926;2023-02-15T02:58:49;95.38;;;34.47;;
47335;SDS011;33068;51.990;5.926;2023-02-15T03:01:19;75.68;;;35.20;;
47335;SDS011;33068;51.990;5.926;2023-02-15T03:03:56;80.55;;;35.83;;
47335;SDS011;33068;51.990;5.926;2023-02-15T03:06:29;81.22;;;36.17;;
47335;SDS011;33068;51.990;5.926;2023-02-15T03:09:04;76.72;;;34.60;;
47335;SDS011;33068;51.990;5.926;2023-02-15T03:11:40;79.50;;;34.22;;
47335;SDS011;33068;51.990;5.926;2023-02-15T03:14:09;83.43;;;35.10;;
47335;SDS011;33068;51.990;5.926;2023-02-15T03:16:38;79.30;;;34.05;;
47335;SDS011;33068;51.990;5.926;2023-02-15T03:19:09;80.65;;;34.60;;
47335;SDS011;33068;51.990;5.926;2023-02-15T03:21:43;77.50;;;32.95;;
47335;SDS011;33068;51.990;5.926;2023-02-15T03:24:23;77.28;;;34.13;;
47335;SDS011;33068;51.990;5.926;2023-02-15T03:26:55;78.95;;;35.00;;
47335;SDS011;33068;51.990;5.926;2023-02-15T03:29:25;72.68;;;32.88;;
47335;SDS011;33068;51.990;5.926;2023-02-15T03:31:56;78.60;;;34.10;;
47335;SDS011;33068;51.990;5.926;2023-02-15T03:34:28;78.65;;;34.67;;
47335;SDS011;33068;51.990;5.926;2023-02-15T03:36:56;78.43;;;33.30;;
47335;SDS011;33068;51.990;5.926;2023-02-15T03:39:28;77.30;;;33.47;;
47335;SDS011;33068;51.990;5.926;2023-02-15T03:42:01;79.10;;;33.75;;
47335;SDS011;33068;51.990;5.926;2023-02-15T03:44:36;84.77;;;34.50;;
47335;SDS011;33068;51.990;5.926;2023-02-15T03:47:15;77.45;;;32.88;;
47335;SDS011;33068;51.990;5.926;2023-02-15T03:49:48;81.10;;;32.50;;
47335;SDS011;33068;51.990;5.926;2023-02-15T03:52:18;76.55;;;33.08;;
47335;SDS011;33068;51.990;5.926;2023-02-15T03:54:47;78.78;;;32.10;;
47335;SDS011;33068;51.990;5.926;2023-02-15T03:57:18;81.22;;;33.63;;
47335;SDS011;33068;51.990;5.926;2023-02-15T04:00:05;79.82;;;35.42;;
47335;SDS011;33068;51.990;5.926;2023-02-15T04:03:07;76.07;;;32.65;;
47335;SDS011;33068;51.990;5.926;2023-02-15T04:05:40;75.47;;;35.55;;
47335;SDS011;33068;51.990;5.926;2023-02-15T04:08:08;75.15;;;32.47;;
47335;SDS011;33068;51.990;5.926;2023-02-15T04:10:36;80.85;;;32.67;;
47335;SDS011;33068;51.990;5.926;2023-02-15T04:13:17;68.10;;;31.27;;
47335;SDS011;33068;51.990;5.926;2023-02-15T04:15:44;74.50;;;33.08;;
47335;SDS011;33068;51.990;5.926;2023-02-15T04:18:30;78.38;;;32.03;;
47335;SDS011;33068;51.990;5.926;2023-02-15T04:21:16;77.57;;;32.40;;
47335;SDS011;33068;51.990;5.926;2023-02-15T04:24:01;81.72;;;34.05;;
47335;SDS011;33068;51.990;5.926;2023-02-15T04:26:46;67.68;;;31.45;;
47335;SDS011;33068;51.990;5.926;2023-02-15T04:29:14;73.13;;;32.47;;
47335;SDS011;33068;51.990;5.926;2023-02-15T04:31:41;77.28;;;32.97;;
47335;SDS011;33068;51.990;5.926;2023-02-15T04:34:09;77.75;;;32.10;;
47335;SDS011;33068;51.990;5.926;2023-02-15T04:36:37;82.95;;;33.25;;
47335;SDS011;33068;51.990;5.926;2023-02-15T04:39:05;74.88;;;33.00;;
47335;SDS011;33068;51.990;5.926;2023-02-15T04:41:33;71.03;;;31.17;;
47335;SDS011;33068;51.990;5.926;2023-02-15T04:44:01;78.72;;;32.42;;
47335;SDS011;33068;51.990;5.926;2023-02-15T04:46:28;65.13;;;30.00;;
47335;SDS011;33068;51.990;5.926;2023-02-15T04:48:55;71.40;;;32.40;;
47335;SDS011;33068;51.990;5.926;2023-02-15T04:51:22;78.30;;;34.13;;
47335;SDS011;33068;51.990;5.926;2023-02-15T04:53:51;65.45;;;29.98;;
47335;SDS011;33068;51.990;5.926;2023-02-15T04:56:18;80.75;;;32.47;;
47335;SDS011;33068;51.990;5.926;2023-02-15T04:58:46;74.07;;;31.25;;
47335;SDS011;33068;51.990;5.926;2023-02-15T05:01:13;73.68;;;32.03;;
47335;SDS011;33068;51.990;5.926;2023-02-15T05:03:40;78.75;;;32.08;;
47335;SDS011;33068;51.990;5.926;2023-02-15T05:06:07;71.50;;;32.47;;
47335;SDS011;33068;51.990;5.926;2023-02-15T05:08:34;74.60;;;31.75;;
47335;SDS011;33068;51.990;5.926;2023-02-15T05:11:03;80.90;;;32.88;;
47335;SDS011;33068;51.990;5.926;2023-02-15T05:13:30;67.78;;;31.88;;
47335;SDS011;33068;51.990;5.926;2023-02-15T05:15:57;75.80;;;32.03;;
47335;SDS011;33068;51.990;5.926;2023-02-15T05:18:24;75.32;;;32.03;;
47335;SDS011;33068;51.990;5.926;2023-02-15T05:20:51;77.35;;;33.53;;
47335;SDS011;33068;51.990;5.926;2023-02-15T05:23:19;73.38;;;30.95;;
47335;SDS011;33068;51.990;5.926;2023-02-15T05:25:46;82.20;;;33.40;;
47335;SDS011;33068;51.990;5.926;2023-02-15T05:28:33;74.57;;;31.40;;
47335;SDS011;33068;51.990;5.926;2023-02-15T05:31:02;74.03;;;31.70;;
47335;SDS011;33068;51.990;5.926;2023-02-15T05:33:30;84.45;;;32.78;;
47335;SDS011;33068;51.990;5.926;2023-02-15T05:35:58;69.75;;;30.38;;
47335;SDS011;33068;51.990;5.926;2023-02-15T05:38:25;72.00;;;30.25;;
47335;SDS011;33068;51.990;5.926;2023-02-15T05:40:52;73.65;;;31.25;;
47335;SDS011;33068;51.990;5.926;2023-02-15T05:43:20;69.47;;;30.58;;
47335;SDS011;33068;51.990;5.926;2023-02-15T05:45:49;77.72;;;30.90;;
47335;SDS011;33068;51.990;5.926;2023-02-15T05:48:19;73.88;;;30.90;;
47335;SDS011;33068;51.990;5.926;2023-02-15T05:50:56;70.93;;;32.05;;
47335;SDS011;33068;51.990;5.926;2023-02-15T05:53:24;81.88;;;33.42;;
47335;SDS011;33068;51.990;5.926;2023-02-15T05:55:51;69.55;;;32.03;;
47335;SDS011;33068;51.990;5.926;2023-02-15T05:58:19;77.68;;;33.40;;
47335;SDS011;33068;51.990;5.926;2023-02-15T06:00:46;71.68;;;29.20;;
47335;SDS011;33068;51.990;5.926;2023-02-15T06:03:14;74.15;;;32.70;;
47335;SDS011;33068;51.990;5.926;2023-02-15T06:05:43;76.30;;;32.70;;
47335;SDS011;33068;51.990;5.926;2023-02-15T06:08:10;80.97;;;32.60;;
47335;SDS011;33068;51.990;5.926;2023-02-15T06:10:37;79.95;;;34.00;;
47335;SDS011;33068;51.990;5.926;2023-02-15T06:13:05;81.95;;;31.17;;
47335;SDS011;33068;51.990;5.926;2023-02-15T06:15:32;75.55;;;32.20;;
47335;SDS011;33068;51.990;5.926;2023-02-15T06:17:59;78.15;;;32.47;;
47335;SDS011;33068;51.990;5.926;2023-02-15T06:20:28;76.88;;;32.35;;
47335;SDS011;33068;51.990;5.926;2023-02-15T06:22:55;71.85;;;30.70;;
47335;SDS011;33068;51.990;5.926;2023-02-15T06:25:22;71.75;;;32.13;;
47335;SDS011;33068;51.990;5.926;2023-02-15T06:27:50;71.78;;;31.92;;
47335;SDS011;33068;51.990;5.926;2023-02-15T06:30:17;72.03;;;30.85;;
47335;SDS011;33068;51.990;5.926;2023-02-15T06:32:45;81.95;;;32.88;;
47335;SDS011;33068;51.990;5.926;2023-02-15T06:35:12;79.85;;;32.28;;
47335;SDS011;33068;51.990;5.926;2023-02-15T06:37:41;83.10;;;32.60;;
47335;SDS011;33068;51.990;5.926;2023-02-15T06:40:08;81.35;;;34.20;;
47335;SDS011;33068;51.990;5.926;2023-02-15T06:42:36;79.45;;;31.90;;
47335;SDS011;33068;51.990;5.926;2023-02-15T06:45:03;82.72;;;34.25;;
47335;SDS011;33068;51.990;5.926;2023-02-15T06:47:30;83.97;;;33.42;;
47335;SDS011;33068;51.990;5.926;2023-02-15T06:49:57;82.50;;;32.90;;
47335;SDS011;33068;51.990;5.926;2023-02-15T06:52:25;76.57;;;32.97;;
47335;SDS011;33068;51.990;5.926;2023-02-15T06:54:53;87.35;;;35.13;;
47335;SDS011;33068;51.990;5.926;2023-02-15T06:57:20;74.63;;;33.55;;
47335;SDS011;33068;51.990;5.926;2023-02-15T06:59:47;87.13;;;35.20;;
47335;SDS011;33068;51.990;5.926;2023-02-15T07:02:15;78.28;;;33.60;;
47335;SDS011;33068;51.990;5.926;2023-02-15T07:04:42;78.53;;;32.97;;
47335;SDS011;33068;51.990;5.926;2023-02-15T07:07:10;82.47;;;30.85;;
47335;SDS011;33068;51.990;5.926;2023-02-15T07:09:38;78.13;;;34.80;;
47335;SDS011;33068;51.990;5.926;2023-02-15T07:12:07;82.05;;;35.10;;
47335;SDS011;33068;51.990;5.926;2023-02-15T07:14:53;77.90;;;32.22;;
47335;SDS011;33068;51.990;5.926;2023-02-15T07:17:20;77.65;;;34.05;;
47335;SDS011;33068;51.990;5.926;2023-02-15T07:19:47;82.07;;;35.25;;
47335;SDS011;33068;51.990;5.926;2023-02-15T07:22:14;84.25;;;34.20;;
47335;SDS011;33068;51.990;5.926;2023-02-15T07:24:41;89.55;;;36.25;;
47335;SDS011;33068;51.990;5.926;2023-02-15T07:27:10;79.60;;;33.97;;
47335;SDS011;33068;51.990;5.926;2023-02-15T07:29:37;91.95;;;34.33;;
47335;SDS011;33068;51.990;5.926;2023-02-15T07:32:05;83.95;;;35.03;;
47335;SDS011;33068;51.990;5.926;2023-02-15T07:34:33;86.80;;;35.22;;
47335;SDS011;33068;51.990;5.926;2023-02-15T07:37:00;91.35;;;36.92;;
47335;SDS011;33068;51.990;5.926;2023-02-15T07:39:27;88.75;;;36.22;;
47335;SDS011;33068;51.990;5.926;2023-02-15T07:41:54;84.85;;;36.60;;
47335;SDS011;33068;51.990;5.926;2023-02-15T07:44:27;87.32;;;36.58;;
47335;SDS011;33068;51.990;5.926;2023-02-15T07:46:54;92.60;;;36.75;;
47335;SDS011;33068;51.990;5.926;2023-02-15T07:49:21;87.10;;;36.28;;
47335;SDS011;33068;51.990;5.926;2023-02-15T07:51:48;88.95;;;35.47;;
47335;SDS011;33068;51.990;5.926;2023-02-15T07:54:15;89.57;;;38.20;;
47335;SDS011;33068;51.990;5.926;2023-02-15T07:56:43;86.80;;;37.60;;
47335;SDS011;33068;51.990;5.926;2023-02-15T07:59:10;89.85;;;38.00;;
47335;SDS011;33068;51.990;5.926;2023-02-15T08:01:38;90.68;;;37.42;;
47335;SDS011;33068;51.990;5.926;2023-02-15T08:04:07;83.13;;;36.90;;
47335;SDS011;33068;51.990;5.926;2023-02-15T08:06:36;86.30;;;36.92;;
47335;SDS011;33068;51.990;5.926;2023-02-15T08:09:04;94.88;;;38.35;;
47335;SDS011;33068;51.990;5.926;2023-02-15T08:11:33;91.68;;;35.47;;
47335;SDS011;33068;51.990;5.926;2023-02-15T08:14:05;95.68;;;40.67;;
47335;SDS011;33068;51.990;5.926;2023-02-15T08:16:34;92.22;;;38.33;;
47335;SDS011;33068;51.990;5.926;2023-02-15T08:19:05;96.68;;;38.88;;
47335;SDS011;33068;51.990;5.926;2023-02-15T08:21:34;105.68;;;39.63;;
47335;SDS011;33068;51.990;5.926;2023-02-15T08:24:03;96.47;;;41.00;;
47335;SDS011;33068;51.990;5.926;2023-02-15T08:26:31;93.70;;;40.25;;
47335;SDS011;33068;51.990;5.926;2023-02-15T08:28:59;92.32;;;37.35;;
47335;SDS011;33068;51.990;5.926;2023-02-15T08:31:28;94.35;;;40.35;;
47335;SDS011;33068;51.990;5.926;2023-02-15T08:33:56;87.72;;;37.67;;
47335;SDS011;33068;51.990;5.926;2023-02-15T08:36:26;91.45;;;38.45;;
47335;SDS011;33068;51.990;5.926;2023-02-15T08:38:54;93.22;;;39.47;;
47335;SDS011;33068;51.990;5.926;2023-02-15T08:41:24;93.38;;;39.00;;
47335;SDS011;33068;51.990;5.926;2023-02-15T08:43:52;93.60;;;39.58;;
47335;SDS011;33068;51.990;5.926;2023-02-15T08:46:22;88.10;;;38.25;;
47335;SDS011;33068;51.990;5.926;2023-02-15T08:48:50;90.65;;;38.55;;
47335;SDS011;33068;51.990;5.926;2023-02-15T08:51:18;98.07;;;39.38;;
47335;SDS011;33068;51.990;5.926;2023-02-15T08:53:49;85.45;;;40.72;;
47335;SDS011;33068;51.990;5.926;2023-02-15T08:56:19;88.13;;;38.50;;
47335;SDS011;33068;51.990;5.926;2023-02-15T08:58:47;89.53;;;39.03;;
47335;SDS011;33068;51.990;5.926;2023-02-15T09:01:15;91.70;;;38.42;;
47335;SDS011;33068;51.990;5.926;2023-02-15T09:03:45;91.93;;;40.38;;
47335;SDS011;33068;51.990;5.926;2023-02-15T09:06:13;82.68;;;35.95;;
47335;SDS011;33068;51.990;5.926;2023-02-15T09:08:40;92.18;;;38.08;;
47335;SDS011;33068;51.990;5.926;2023-02-15T09:11:09;84.30;;;39.45;;
47335;SDS011;33068;51.990;5.926;2023-02-15T09:13:38;81.07;;;37.47;;
47335;SDS011;33068;51.990;5.926;2023-02-15T09:16:06;83.18;;;36.05;;
47335;SDS011;33068;51.990;5.926;2023-02-15T09:18:36;75.45;;;35.80;;
47335;SDS011;33068;51.990;5.926;2023-02-15T09:21:05;73.40;;;35.63;;
47335;SDS011;33068;51.990;5.926;2023-02-15T09:23:34;76.13;;;34.33;;
47335;SDS011;33068;51.990;5.926;2023-02-15T09:26:02;69.97;;;32.33;;
47335;SDS011;33068;51.990;5.926;2023-02-15T09:28:32;73.85;;;35.58;;
47335;SDS011;33068;51.990;5.926;2023-02-15T09:31:06;69.88;;;32.20;;
47335;SDS011;33068;51.990;5.926;2023-02-15T09:33:35;75.43;;;34.08;;
47335;SDS011;33068;51.990;5.926;2023-02-15T09:36:02;78.20;;;33.30;;
47335;SDS011;33068;51.990;5.926;2023-02-15T09:38:30;76.38;;;34.45;;
47335;SDS011;33068;51.990;5.926;2023-02-15T09:41:02;70.03;;;32.60;;
47335;SDS011;33068;51.990;5.926;2023-02-15T09:43:47;64.70;;;30.30;;
47335;SDS011;33068;51.990;5.926;2023-02-15T09:46:26;64.18;;;31.60;;
47335;SDS011;33068;51.990;5.926;2023-02-15T09:49:04;69.03;;;31.20;;
47335;SDS011;33068;51.990;5.926;2023-02-15T09:54:27;69.10;;;30.95;;
47335;SDS011;33068;51.990;5.926;2023-02-15T09:57:04;62.65;;;29.38;;
47335;SDS011;33068;51.990;5.926;2023-02-15T09:59:39;65.70;;;29.58;;
47335;SDS011;33068;51.990;5.926;2023-02-15T10:02:17;64.63;;;30.52;;
47335;SDS011;33068;51.990;5.926;2023-02-15T10:04:57;59.45;;;27.73;;
47335;SDS011;33068;51.990;5.926;2023-02-15T10:07:41;65.15;;;28.50;;
47335;SDS011;33068;51.990;5.926;2023-02-15T10:10:30;58.22;;;27.88;;
47335;SDS011;33068;51.990;5.926;2023-02-15T10:13:13;62.83;;;28.65;;
47335;SDS011;33068;51.990;5.926;2023-02-15T10:15:56;62.67;;;29.15;;
47335;SDS011;33068;51.990;5.926;2023-02-15T10:18:46;58.40;;;27.52;;
47335;SDS011;33068;51.990;5.926;2023-02-15T10:21:24;56.35;;;27.95;;
47335;SDS011;33068;51.990;5.926;2023-02-15T10:26:55;53.80;;;26.23;;
47335;SDS011;33068;51.990;5.926;2023-02-15T10:29:29;53.58;;;25.48;;
47335;SDS011;33068;51.990;5.926;2023-02-15T10:32:05;60.17;;;27.33;;
47335;SDS011;33068;51.990;5.926;2023-02-15T10:34:43;55.10;;;26.17;;
47335;SDS011;33068;51.990;5.926;2023-02-15T10:37:20;52.10;;;26.83;;
47335;SDS011;33068;51.990;5.926;2023-02-15T10:40:02;46.72;;;24.63;;
47335;SDS011;33068;51.990;5.926;2023-02-15T10:42:40;49.55;;;24.63;;
47335;SDS011;33068;51.990;5.926;2023-02-15T10:45:19;50.33;;;24.30;;
47335;SDS011;33068;51.990;5.926;2023-02-15T10:47:55;43.67;;;23.90;;
47335;SDS011;33068;51.990;5.926;2023-02-15T10:50:46;42.72;;;23.55;;
47335;SDS011;33068;51.990;5.926;2023-02-15T10:53:25;44.95;;;22.30;;
47335;SDS011;33068;51.990;5.926;2023-02-15T10:56:14;47.08;;;22.42;;
47335;SDS011;33068;51.990;5.926;2023-02-15T10:58:50;47.85;;;23.80;;
47335;SDS011;33068;51.990;5.926;2023-02-15T11:01:27;44.03;;;23.10;;
47335;SDS011;33068;51.990;5.926;2023-02-15T11:04:08;39.88;;;21.65;;
47335;SDS011;33068;51.990;5.926;2023-02-15T11:06:52;39.03;;;21.65;;
47335;SDS011;33068;51.990;5.926;2023-02-15T11:09:23;51.28;;;22.73;;
47335;SDS011;33068;51.990;5.926;2023-02-15T11:11:56;45.00;;;22.45;;
47335;SDS011;33068;51.990;5.926;2023-02-15T11:14:29;42.45;;;22.38;;
47335;SDS011;33068;51.990;5.926;2023-02-15T11:17:04;43.55;;;21.65;;
47335;SDS011;33068;51.990;5.926;2023-02-15T11:19:37;44.10;;;21.27;;
47335;SDS011;33068;51.990;5.926;2023-02-15T11:22:09;45.17;;;21.90;;
47335;SDS011;33068;51.990;5.926;2023-02-15T11:24:39;41.97;;;20.75;;
47335;SDS011;33068;51.990;5.926;2023-02-15T11:27:16;41.45;;;20.42;;
47335;SDS011;33068;51.990;5.926;2023-02-15T11:29:49;46.40;;;22.00;;
47335;SDS011;33068;51.990;5.926;2023-02-15T11:32:21;40.78;;;21.83;;
47335;SDS011;33068;51.990;5.926;2023-02-15T11:34:54;44.10;;;21.30;;
47335;SDS011;33068;51.990;5.926;2023-02-15T11:37:27;41.15;;;21.52;;
47335;SDS011;33068;51.990;5.926;2023-02-15T11:39:59;58.28;;;21.85;;
47335;SDS011;33068;51.990;5.926;2023-02-15T11:42:29;52.65;;;23.02;;
47335;SDS011;33068;51.990;5.926;2023-02-15T11:44:59;43.00;;;21.20;;
47335;SDS011;33068;51.990;5.926;2023-02-15T11:47:35;37.17;;;19.55;;
47335;SDS011;33068;51.990;5.926;2023-02-15T11:50:04;38.50;;;20.80;;
47335;SDS011;33068;51.990;5.926;2023-02-15T11:52:32;41.45;;;22.48;;
47335;SDS011;33068;51.990;5.926;2023-02-15T11:54:59;40.70;;;19.63;;
47335;SDS011;33068;51.990;5.926;2023-02-15T11:57:28;43.75;;;19.45;;
47335;SDS011;33068;51.990;5.926;2023-02-15T12:00:01;43.83;;;20.30;;
47335;SDS011;33068;51.990;5.926;2023-02-15T12:02:36;39.40;;;19.27;;
47335;SDS011;33068;51.990;5.926;2023-02-15T12:05:09;43.58;;;19.95;;
47335;SDS011;33068;51.990;5.926;2023-02-15T12:07:40;40.80;;;20.38;;
47335;SDS011;33068;51.990;5.926;2023-02-15T12:10:16;45.88;;;20.65;;
47335;SDS011;33068;51.990;5.926;2023-02-15T12:12:45;43.92;;;20.25;;
47335;SDS011;33068;51.990;5.926;2023-02-15T12:15:13;41.38;;;20.83;;
47335;SDS011;33068;51.990;5.926;2023-02-15T12:17:41;48.35;;;20.75;;
47335;SDS011;33068;51.990;5.926;2023-02-15T12:20:25;48.53;;;21.85;;
47335;SDS011;33068;51.990;5.926;2023-02-15T12:22:58;44.35;;;19.77;;
47335;SDS011;33068;51.990;5.926;2023-02-15T12:25:29;42.63;;;21.25;;
47335;SDS011;33068;51.990;5.926;2023-02-15T12:28:02;45.75;;;22.25;;
47335;SDS011;33068;51.990;5.926;2023-02-15T12:30:29;40.15;;;21.05;;
47335;SDS011;33068;51.990;5.926;2023-02-15T12:33:01;42.13;;;21.58;;
47335;SDS011;33068;51.990;5.926;2023-02-15T12:35:36;42.30;;;21.95;;
47335;SDS011;33068;51.990;5.926;2023-02-15T12:38:04;47.33;;;22.13;;
47335;SDS011;33068;51.990;5.926;2023-02-15T12:40:56;50.05;;;22.50;;
47335;SDS011;33068;51.990;5.926;2023-02-15T12:43:25;50.65;;;22.50;;
47335;SDS011;33068;51.990;5.926;2023-02-15T12:46:13;40.92;;;21.23;;
47335;SDS011;33068;51.990;5.926;2023-02-15T12:48:48;42.30;;;22.08;;
47335;SDS011;33068;51.990;5.926;2023-02-15T12:51:43;41.45;;;21.63;;
47335;SDS011;33068;51.990;5.926;2023-02-15T12:54:31;44.78;;;21.35;;
47335;SDS011;33068;51.990;5.926;2023-02-15T12:57:12;46.55;;;21.95;;
47335;SDS011;33068;51.990;5.926;2023-02-15T12:59:48;41.55;;;21.88;;
47335;SDS011;33068;51.990;5.926;2023-02-15T13:02:24;47.50;;;20.60;;
47335;SDS011;33068;51.990;5.926;2023-02-15T13:04:53;70.82;;;24.55;;
47335;SDS011;33068;51.990;5.926;2023-02-15T13:07:25;160.20;;;29.45;;
47335;SDS011;33068;51.990;5.926;2023-02-15T13:09:57;59.38;;;23.55;;
47335;SDS011;33068;51.990;5.926;2023-02-15T13:12:25;47.85;;;22.02;;
47335;SDS011;33068;51.990;5.926;2023-02-15T13:14:56;40.97;;;21.45;;
47335;SDS011;33068;51.990;5.926;2023-02-15T13:17:25;43.53;;;21.00;;
47335;SDS011;33068;51.990;5.926;2023-02-15T13:19:55;51.08;;;22.52;;
47335;SDS011;33068;51.990;5.926;2023-02-15T13:22:27;45.47;;;22.27;;
47335;SDS011;33068;51.990;5.926;2023-02-15T13:25:01;40.63;;;21.92;;
47335;SDS011;33068;51.990;5.926;2023-02-15T13:27:32;47.13;;;21.88;;
47335;SDS011;33068;51.990;5.926;2023-02-15T13:30:04;41.17;;;22.35;;
47335;SDS011;33068;51.990;5.926;2023-02-15T13:32:44;45.47;;;22.08;;
47335;SDS011;33068;51.990;5.926;2023-02-15T13:35:14;42.25;;;23.13;;
47335;SDS011;33068;51.990;5.926;2023-02-15T13:40:40;43.95;;;22.48;;
47335;SDS011;33068;51.990;5.926;2023-02-15T13:43:20;48.55;;;22.65;;
47335;SDS011;33068;51.990;5.926;2023-02-15T13:46:02;50.25;;;22.52;;
47335;SDS011;33068;51.990;5.926;2023-02-15T13:48:41;46.65;;;21.30;;
47335;SDS011;33068;51.990;5.926;2023-02-15T13:56:59;45.72;;;22.42;;
47335;SDS011;33068;51.990;5.926;2023-02-15T13:59:48;42.15;;;23.23;;
47335;SDS011;33068;51.990;5.926;2023-02-15T14:02:30;45.30;;;22.98;;
47335;SDS011;33068;51.990;5.926;2023-02-15T14:05:25;45.40;;;24.27;;
47335;SDS011;33068;51.990;5.926;2023-02-15T14:08:01;46.65;;;23.95;;
47335;SDS011;33068;51.990;5.926;2023-02-15T14:10:44;47.20;;;23.42;;
47335;SDS011;33068;51.990;5.926;2023-02-15T14:16:16;49.30;;;23.67;;
47335;SDS011;33068;51.990;5.926;2023-02-15T14:18:54;47.22;;;23.80;;
47335;SDS011;33068;51.990;5.926;2023-02-15T14:21:26;48.95;;;23.65;;
47335;SDS011;33068;51.990;5.926;2023-02-15T14:24:01;54.08;;;24.85;;
47335;SDS011;33068;51.990;5.926;2023-02-15T14:26:42;45.28;;;23.50;;
47335;SDS011;33068;51.990;5.926;2023-02-15T14:29:20;46.15;;;23.83;;
47335;SDS011;33068;51.990;5.926;2023-02-15T14:31:56;52.00;;;24.63;;
47335;SDS011;33068;51.990;5.926;2023-02-15T14:34:27;52.85;;;24.02;;
47335;SDS011;33068;51.990;5.926;2023-02-15T14:37:02;43.08;;;23.85;;
47335;SDS011;33068;51.990;5.926;2023-02-15T14:39:31;39.92;;;22.73;;
47335;SDS011;33068;51.990;5.926;2023-02-15T14:42:29;48.63;;;24.92;;
47335;SDS011;33068;51.990;5.926;2023-02-15T14:45:01;52.33;;;23.63;;
47335;SDS011;33068;51.990;5.926;2023-02-15T14:47:41;48.28;;;24.40;;
47335;SDS011;33068;51.990;5.926;2023-02-15T14:56:14;45.40;;;23.70;;
47335;SDS011;33068;51.990;5.926;2023-02-15T15:01:51;45.70;;;23.50;;
47335;SDS011;33068;51.990;5.926;2023-02-15T15:04:24;54.75;;;25.00;;
47335;SDS011;33068;51.990;5.926;2023-02-15T15:07:07;49.22;;;23.75;;
47335;SDS011;33068;51.990;5.926;2023-02-15T15:09:42;52.55;;;23.33;;
47335;SDS011;33068;51.990;5.926;2023-02-15T15:15:06;42.47;;;23.02;;
47335;SDS011;33068;51.990;5.926;2023-02-15T15:17:54;46.17;;;23.75;;
47335;SDS011;33068;51.990;5.926;2023-02-15T15:20:40;54.60;;;24.27;;
47335;SDS011;33068;51.990;5.926;2023-02-15T15:26:22;49.88;;;23.70;;
47335;SDS011;33068;51.990;5.926;2023-02-15T15:28:55;40.65;;;22.60;;
47335;SDS011;33068;51.990;5.926;2023-02-15T15:31:26;45.58;;;22.77;;